This is the latest recevied weather packets stored in our database for station/object DH8TOM-2. If no packets are shown the sender has not sent any weather packets the latest 10 day(s).
| Time | Temp. | Humidity | Pressure | Rain* | Wind** | Luminosity | Snow |
|---|---|---|---|---|---|---|---|
| 1777892849 | 21.11° C | 52% | 1011.5 hPa | 0 mm | - | - | - |
| 1777892549 | 21.67° C | 48% | 1011.6 hPa | 0 mm | - | - | - |
| 1777892248 | 21.67° C | 48% | 1011.6 hPa | 0 mm | - | - | - |
| 1777891947 | 21.67° C | 50% | 1011.7 hPa | 0 mm | - | - | - |
| 1777891646 | 21.67° C | 50% | 1011.7 hPa | 0 mm | - | - | - |
| 1777891345 | 21.67° C | 51% | 1011.8 hPa | 0 mm | - | - | - |
| 1777891045 | 21.67° C | 51% | 1011.8 hPa | 0 mm | - | - | - |
| 1777890743 | 21.67° C | 48% | 1011.8 hPa | 0 mm | - | - | - |
| 1777890442 | 21.67° C | 48% | 1011.8 hPa | 0 mm | - | - | - |
| 1777890141 | 21.67° C | 46% | 1011.9 hPa | 0 mm | - | - | - |
| 1777889840 | 21.67° C | 46% | 1011.9 hPa | 0 mm | - | - | - |
| 1777889540 | 22.22° C | 45% | 1011.9 hPa | 0 mm | - | - | - |
| 1777889238 | 22.22° C | 45% | 1011.9 hPa | 0 mm | - | - | - |
| 1777888937 | 22.22° C | 49% | 1011.9 hPa | 0 mm | - | - | - |
| 1777888636 | 22.22° C | 49% | 1011.9 hPa | 0 mm | - | - | - |
| 1777888335 | 22.22° C | 50% | 1012 hPa | 0 mm | - | - | - |
| 1777888035 | 22.22° C | 50% | 1012 hPa | 0 mm | - | - | - |
| 1777887735 | 21.67° C | 52% | 1012.1 hPa | 0 mm | - | - | - |
| 1777887432 | 21.67° C | 52% | 1012.1 hPa | 0 mm | - | - | - |
| 1777887131 | 21.11° C | 54% | 1012.2 hPa | 0 mm | - | - | - |
| 1777886830 | 21.11° C | 54% | 1012.2 hPa | 0 mm | - | - | - |
| 1777886529 | 20.56° C | 56% | 1012.2 hPa | 0 mm | - | - | - |
| 1777886228 | 20.56° C | 56% | 1012.2 hPa | 0 mm | - | - | - |
| 1777885957 | 20° C | 56% | 1012.2 hPa | 0 mm | - | - | - |
| 1777885626 | 20° C | 56% | 1012.2 hPa | 0 mm | - | - | - |
* Rain latest hour (hover to see other rain measurements)
** Current wind speed in m/s (hover to see current wind gust speed)